East Wenona, Illinois
Current Conditions -  °F | °C
As of 8:35 PM on Thursday 20 Nov 2014 (Local Time) from KC75 Reporting Station
Clear Clear  
Wind Chill: 10°   Ceiling: Unl
Heat Index: 18°   Visibility: 10mi
Dew Point:   Wind: 6mph
Humidity: 62%   Direction: 320°NW
Pressure: 30.28"   Gusts: NA
Location:  41.0632°N, 89.0208°W
Report Text: KC75 210235Z AUTO 32005KT 10SM CLR M08/M14 A3028 RMK AO2 T10791140
Loading
Personal Weather Stations






























Interactive Weather Map New forecast layout! Learn more

10-Day Weather Forecast

Advertisements
Track Severe Weather on mobile